sensor_id;sensor_type;location;lat;lon;timestamp;P1;durP1;ratioP1;P2;durP2;ratioP2
20859;SDS011;10590;48.154;11.514;2022-12-07T00:01:27;19.30;;;13.73;;
20859;SDS011;10590;48.154;11.514;2022-12-07T00:06:30;20.73;;;14.33;;
20859;SDS011;10590;48.154;11.514;2022-12-07T00:11:33;21.40;;;13.93;;
20859;SDS011;10590;48.154;11.514;2022-12-07T00:16:36;19.80;;;13.27;;
20859;SDS011;10590;48.154;11.514;2022-12-07T00:21:38;16.10;;;12.20;;
20859;SDS011;10590;48.154;11.514;2022-12-07T00:26:40;18.87;;;12.87;;
20859;SDS011;10590;48.154;11.514;2022-12-07T00:31:45;16.97;;;11.83;;
20859;SDS011;10590;48.154;11.514;2022-12-07T00:36:47;18.70;;;12.27;;
20859;SDS011;10590;48.154;11.514;2022-12-07T00:41:50;18.33;;;11.93;;
20859;SDS011;10590;48.154;11.514;2022-12-07T00:46:53;19.43;;;13.33;;
20859;SDS011;10590;48.154;11.514;2022-12-07T00:51:55;20.43;;;12.70;;
20859;SDS011;10590;48.154;11.514;2022-12-07T00:56:58;17.50;;;12.47;;
20859;SDS011;10590;48.154;11.514;2022-12-07T01:02:01;19.17;;;12.70;;
20859;SDS011;10590;48.154;11.514;2022-12-07T01:07:03;17.80;;;13.13;;
20859;SDS011;10590;48.154;11.514;2022-12-07T01:12:05;18.87;;;12.30;;
20859;SDS011;10590;48.154;11.514;2022-12-07T01:17:08;18.77;;;12.17;;
20859;SDS011;10590;48.154;11.514;2022-12-07T01:22:10;16.63;;;12.83;;
20859;SDS011;10590;48.154;11.514;2022-12-07T01:27:12;22.47;;;12.07;;
20859;SDS011;10590;48.154;11.514;2022-12-07T01:32:14;18.00;;;12.43;;
20859;SDS011;10590;48.154;11.514;2022-12-07T01:37:17;18.50;;;11.57;;
20859;SDS011;10590;48.154;11.514;2022-12-07T01:42:21;17.90;;;12.50;;
20859;SDS011;10590;48.154;11.514;2022-12-07T01:47:24;18.20;;;12.50;;
20859;SDS011;10590;48.154;11.514;2022-12-07T01:52:28;15.97;;;12.33;;
20859;SDS011;10590;48.154;11.514;2022-12-07T01:57:34;18.10;;;12.63;;
20859;SDS011;10590;48.154;11.514;2022-12-07T02:02:43;18.43;;;12.20;;
20859;SDS011;10590;48.154;11.514;2022-12-07T02:07:49;17.33;;;11.93;;
20859;SDS011;10590;48.154;11.514;2022-12-07T02:12:56;18.30;;;11.77;;
20859;SDS011;10590;48.154;11.514;2022-12-07T02:18:06;18.53;;;12.17;;
20859;SDS011;10590;48.154;11.514;2022-12-07T02:23:35;17.83;;;13.03;;
20859;SDS011;10590;48.154;11.514;2022-12-07T02:28:59;17.27;;;12.13;;
20859;SDS011;10590;48.154;11.514;2022-12-07T02:34:17;17.07;;;12.17;;
20859;SDS011;10590;48.154;11.514;2022-12-07T02:39:26;18.67;;;11.93;;
20859;SDS011;10590;48.154;11.514;2022-12-07T02:44:35;16.70;;;11.73;;
20859;SDS011;10590;48.154;11.514;2022-12-07T02:49:38;18.97;;;12.70;;
20859;SDS011;10590;48.154;11.514;2022-12-07T02:54:41;18.07;;;13.00;;
20859;SDS011;10590;48.154;11.514;2022-12-07T02:59:46;16.73;;;12.67;;
20859;SDS011;10590;48.154;11.514;2022-12-07T03:05:02;18.53;;;12.77;;
20859;SDS011;10590;48.154;11.514;2022-12-07T03:10:19;16.43;;;12.37;;
20859;SDS011;10590;48.154;11.514;2022-12-07T03:15:31;18.60;;;12.97;;
20859;SDS011;10590;48.154;11.514;2022-12-07T03:20:36;19.03;;;12.83;;
20859;SDS011;10590;48.154;11.514;2022-12-07T03:25:41;21.33;;;13.37;;
20859;SDS011;10590;48.154;11.514;2022-12-07T03:30:51;21.07;;;13.50;;
20859;SDS011;10590;48.154;11.514;2022-12-07T03:35:59;22.90;;;14.73;;
20859;SDS011;10590;48.154;11.514;2022-12-07T03:41:08;18.07;;;13.40;;
20859;SDS011;10590;48.154;11.514;2022-12-07T03:46:17;19.50;;;13.37;;
20859;SDS011;10590;48.154;11.514;2022-12-07T03:51:24;22.47;;;13.47;;
20859;SDS011;10590;48.154;11.514;2022-12-07T03:56:30;18.53;;;13.00;;
20859;SDS011;10590;48.154;11.514;2022-12-07T04:01:35;18.93;;;13.43;;
20859;SDS011;10590;48.154;11.514;2022-12-07T04:06:36;18.70;;;13.33;;
20859;SDS011;10590;48.154;11.514;2022-12-07T04:11:38;19.07;;;13.23;;
20859;SDS011;10590;48.154;11.514;2022-12-07T04:16:41;23.33;;;14.17;;
20859;SDS011;10590;48.154;11.514;2022-12-07T04:21:46;21.70;;;13.27;;
20859;SDS011;10590;48.154;11.514;2022-12-07T04:26:48;19.67;;;12.90;;
20859;SDS011;10590;48.154;11.514;2022-12-07T04:31:52;20.23;;;13.33;;
20859;SDS011;10590;48.154;11.514;2022-12-07T04:36:54;21.73;;;14.53;;
20859;SDS011;10590;48.154;11.514;2022-12-07T04:42:02;23.60;;;14.50;;
20859;SDS011;10590;48.154;11.514;2022-12-07T04:47:06;23.27;;;15.20;;
20859;SDS011;10590;48.154;11.514;2022-12-07T04:52:09;24.83;;;15.57;;
20859;SDS011;10590;48.154;11.514;2022-12-07T04:57:11;19.97;;;13.97;;
20859;SDS011;10590;48.154;11.514;2022-12-07T05:02:14;20.43;;;14.10;;
20859;SDS011;10590;48.154;11.514;2022-12-07T05:07:16;26.03;;;15.60;;
20859;SDS011;10590;48.154;11.514;2022-12-07T05:12:17;23.20;;;15.13;;
20859;SDS011;10590;48.154;11.514;2022-12-07T05:17:20;22.87;;;15.30;;
20859;SDS011;10590;48.154;11.514;2022-12-07T05:22:24;25.97;;;15.40;;
20859;SDS011;10590;48.154;11.514;2022-12-07T05:27:28;25.27;;;15.63;;
20859;SDS011;10590;48.154;11.514;2022-12-07T05:32:31;21.80;;;13.57;;
20859;SDS011;10590;48.154;11.514;2022-12-07T05:37:33;25.00;;;14.97;;
20859;SDS011;10590;48.154;11.514;2022-12-07T05:42:34;24.97;;;15.87;;
20859;SDS011;10590;48.154;11.514;2022-12-07T05:47:38;25.40;;;16.03;;
20859;SDS011;10590;48.154;11.514;2022-12-07T05:52:40;23.87;;;15.73;;
20859;SDS011;10590;48.154;11.514;2022-12-07T05:57:41;22.70;;;15.00;;
20859;SDS011;10590;48.154;11.514;2022-12-07T06:03:07;24.40;;;15.53;;
20859;SDS011;10590;48.154;11.514;2022-12-07T06:08:10;24.67;;;16.73;;
20859;SDS011;10590;48.154;11.514;2022-12-07T06:13:12;27.07;;;16.83;;
20859;SDS011;10590;48.154;11.514;2022-12-07T06:18:15;29.33;;;16.20;;
20859;SDS011;10590;48.154;11.514;2022-12-07T06:23:17;26.37;;;16.70;;
20859;SDS011;10590;48.154;11.514;2022-12-07T06:33:47;26.17;;;15.80;;
20859;SDS011;10590;48.154;11.514;2022-12-07T06:38:51;24.13;;;15.43;;
20859;SDS011;10590;48.154;11.514;2022-12-07T06:43:53;21.57;;;15.07;;
20859;SDS011;10590;48.154;11.514;2022-12-07T06:48:56;25.70;;;16.20;;
20859;SDS011;10590;48.154;11.514;2022-12-07T06:53:58;23.73;;;15.33;;
20859;SDS011;10590;48.154;11.514;2022-12-07T06:59:00;24.37;;;15.63;;
20859;SDS011;10590;48.154;11.514;2022-12-07T07:04:03;22.27;;;15.43;;
20859;SDS011;10590;48.154;11.514;2022-12-07T07:09:05;27.23;;;17.27;;
20859;SDS011;10590;48.154;11.514;2022-12-07T07:14:07;24.97;;;16.07;;
20859;SDS011;10590;48.154;11.514;2022-12-07T07:19:10;22.50;;;16.13;;
20859;SDS011;10590;48.154;11.514;2022-12-07T07:24:12;22.77;;;15.43;;
20859;SDS011;10590;48.154;11.514;2022-12-07T07:29:13;22.50;;;15.80;;
20859;SDS011;10590;48.154;11.514;2022-12-07T07:34:16;23.43;;;16.10;;
20859;SDS011;10590;48.154;11.514;2022-12-07T07:39:18;27.10;;;17.30;;
20859;SDS011;10590;48.154;11.514;2022-12-07T07:44:19;27.30;;;16.70;;
20859;SDS011;10590;48.154;11.514;2022-12-07T07:49:23;26.60;;;17.27;;
20859;SDS011;10590;48.154;11.514;2022-12-07T07:54:24;26.60;;;16.67;;
20859;SDS011;10590;48.154;11.514;2022-12-07T07:59:26;27.17;;;16.63;;
20859;SDS011;10590;48.154;11.514;2022-12-07T08:04:29;26.40;;;16.93;;
20859;SDS011;10590;48.154;11.514;2022-12-07T08:09:32;25.87;;;16.10;;
20859;SDS011;10590;48.154;11.514;2022-12-07T08:14:33;25.80;;;16.23;;
20859;SDS011;10590;48.154;11.514;2022-12-07T08:19:37;28.73;;;18.23;;
20859;SDS011;10590;48.154;11.514;2022-12-07T08:24:38;27.50;;;17.40;;
20859;SDS011;10590;48.154;11.514;2022-12-07T08:29:40;23.37;;;16.43;;
20859;SDS011;10590;48.154;11.514;2022-12-07T08:34:43;27.73;;;17.60;;
20859;SDS011;10590;48.154;11.514;2022-12-07T08:39:45;27.57;;;17.03;;
20859;SDS011;10590;48.154;11.514;2022-12-07T08:44:46;30.53;;;19.33;;
20859;SDS011;10590;48.154;11.514;2022-12-07T08:49:50;26.50;;;17.07;;
20859;SDS011;10590;48.154;11.514;2022-12-07T08:54:53;26.10;;;17.53;;
20859;SDS011;10590;48.154;11.514;2022-12-07T08:59:55;24.57;;;15.73;;
20859;SDS011;10590;48.154;11.514;2022-12-07T09:04:58;24.57;;;15.73;;
20859;SDS011;10590;48.154;11.514;2022-12-07T09:10:00;24.33;;;15.17;;
20859;SDS011;10590;48.154;11.514;2022-12-07T09:15:03;22.10;;;13.97;;
20859;SDS011;10590;48.154;11.514;2022-12-07T09:20:07;20.00;;;13.87;;
20859;SDS011;10590;48.154;11.514;2022-12-07T09:25:09;24.50;;;14.40;;
20859;SDS011;10590;48.154;11.514;2022-12-07T09:30:10;22.00;;;14.10;;
20859;SDS011;10590;48.154;11.514;2022-12-07T09:35:28;20.00;;;13.43;;
20859;SDS011;10590;48.154;11.514;2022-12-07T09:40:30;22.73;;;14.27;;
20859;SDS011;10590;48.154;11.514;2022-12-07T09:45:34;20.47;;;13.20;;
20859;SDS011;10590;48.154;11.514;2022-12-07T09:50:39;19.27;;;13.93;;
20859;SDS011;10590;48.154;11.514;2022-12-07T09:55:41;20.50;;;14.07;;
20859;SDS011;10590;48.154;11.514;2022-12-07T10:00:44;18.57;;;13.63;;
20859;SDS011;10590;48.154;11.514;2022-12-07T10:05:48;19.40;;;13.50;;
20859;SDS011;10590;48.154;11.514;2022-12-07T10:10:52;20.87;;;13.33;;
20859;SDS011;10590;48.154;11.514;2022-12-07T10:15:56;17.57;;;12.87;;
20859;SDS011;10590;48.154;11.514;2022-12-07T10:21:09;19.33;;;13.13;;
20859;SDS011;10590;48.154;11.514;2022-12-07T10:26:20;19.07;;;12.03;;
20859;SDS011;10590;48.154;11.514;2022-12-07T10:31:28;16.27;;;12.00;;
20859;SDS011;10590;48.154;11.514;2022-12-07T10:36:35;16.50;;;11.93;;
20859;SDS011;10590;48.154;11.514;2022-12-07T10:41:49;16.13;;;11.20;;
20859;SDS011;10590;48.154;11.514;2022-12-07T10:47:00;15.53;;;10.87;;
20859;SDS011;10590;48.154;11.514;2022-12-07T10:52:20;14.83;;;9.63;;
20859;SDS011;10590;48.154;11.514;2022-12-07T10:57:32;11.30;;;8.73;;
20859;SDS011;10590;48.154;11.514;2022-12-07T11:03:03;13.50;;;9.87;;
20859;SDS011;10590;48.154;11.514;2022-12-07T11:08:31;13.10;;;9.67;;
20859;SDS011;10590;48.154;11.514;2022-12-07T11:13:44;12.57;;;9.37;;
20859;SDS011;10590;48.154;11.514;2022-12-07T11:18:57;11.07;;;8.03;;
20859;SDS011;10590;48.154;11.514;2022-12-07T11:24:10;10.23;;;7.63;;
20859;SDS011;10590;48.154;11.514;2022-12-07T11:29:24;14.60;;;8.57;;
20859;SDS011;10590;48.154;11.514;2022-12-07T11:34:39;12.50;;;8.30;;
20859;SDS011;10590;48.154;11.514;2022-12-07T11:39:52;11.63;;;8.20;;
20859;SDS011;10590;48.154;11.514;2022-12-07T11:44:59;13.57;;;8.87;;
20859;SDS011;10590;48.154;11.514;2022-12-07T11:50:14;8.77;;;7.10;;
20859;SDS011;10590;48.154;11.514;2022-12-07T11:55:29;9.33;;;6.83;;
20859;SDS011;10590;48.154;11.514;2022-12-07T12:00:39;10.50;;;7.60;;
20859;SDS011;10590;48.154;11.514;2022-12-07T12:05:42;10.27;;;7.03;;
20859;SDS011;10590;48.154;11.514;2022-12-07T12:10:50;10.17;;;7.50;;
20859;SDS011;10590;48.154;11.514;2022-12-07T12:16:01;11.53;;;7.30;;
20859;SDS011;10590;48.154;11.514;2022-12-07T12:21:14;10.50;;;7.70;;
20859;SDS011;10590;48.154;11.514;2022-12-07T12:26:20;10.93;;;7.50;;
20859;SDS011;10590;48.154;11.514;2022-12-07T12:31:34;10.70;;;7.60;;
20859;SDS011;10590;48.154;11.514;2022-12-07T12:36:44;10.07;;;7.37;;
20859;SDS011;10590;48.154;11.514;2022-12-07T12:41:52;12.07;;;7.97;;
20859;SDS011;10590;48.154;11.514;2022-12-07T12:52:48;15.23;;;9.77;;
20859;SDS011;10590;48.154;11.514;2022-12-07T13:03:37;12.50;;;8.43;;
20859;SDS011;10590;48.154;11.514;2022-12-07T13:08:39;12.07;;;8.50;;
20859;SDS011;10590;48.154;11.514;2022-12-07T13:13:45;12.27;;;8.83;;
20859;SDS011;10590;48.154;11.514;2022-12-07T13:18:47;13.43;;;8.87;;
20859;SDS011;10590;48.154;11.514;2022-12-07T13:23:52;13.07;;;9.70;;
20859;SDS011;10590;48.154;11.514;2022-12-07T13:29:05;14.23;;;9.77;;
20859;SDS011;10590;48.154;11.514;2022-12-07T13:34:28;13.90;;;8.90;;
20859;SDS011;10590;48.154;11.514;2022-12-07T13:39:32;12.60;;;8.87;;
20859;SDS011;10590;48.154;11.514;2022-12-07T13:44:39;14.00;;;9.27;;
20859;SDS011;10590;48.154;11.514;2022-12-07T13:49:46;13.53;;;9.50;;
20859;SDS011;10590;48.154;11.514;2022-12-07T13:54:55;14.10;;;9.07;;
20859;SDS011;10590;48.154;11.514;2022-12-07T13:59:59;13.17;;;9.30;;
20859;SDS011;10590;48.154;11.514;2022-12-07T14:05:07;12.47;;;9.13;;
20859;SDS011;10590;48.154;11.514;2022-12-07T14:10:22;13.80;;;9.30;;
20859;SDS011;10590;48.154;11.514;2022-12-07T14:15:28;14.20;;;8.00;;
20859;SDS011;10590;48.154;11.514;2022-12-07T14:20:32;10.30;;;6.77;;
20859;SDS011;10590;48.154;11.514;2022-12-07T14:25:44;9.03;;;6.53;;
20859;SDS011;10590;48.154;11.514;2022-12-07T14:30:47;8.50;;;5.30;;
20859;SDS011;10590;48.154;11.514;2022-12-07T14:35:49;11.80;;;6.70;;
20859;SDS011;10590;48.154;11.514;2022-12-07T14:40:55;9.10;;;6.27;;
20859;SDS011;10590;48.154;11.514;2022-12-07T14:46:20;13.73;;;6.67;;
20859;SDS011;10590;48.154;11.514;2022-12-07T14:51:22;9.03;;;6.37;;
20859;SDS011;10590;48.154;11.514;2022-12-07T14:56:23;10.20;;;6.53;;
20859;SDS011;10590;48.154;11.514;2022-12-07T15:01:26;12.10;;;6.10;;
20859;SDS011;10590;48.154;11.514;2022-12-07T15:06:28;10.73;;;6.47;;
20859;SDS011;10590;48.154;11.514;2022-12-07T15:11:30;13.73;;;7.43;;
20859;SDS011;10590;48.154;11.514;2022-12-07T15:16:33;12.83;;;7.47;;
20859;SDS011;10590;48.154;11.514;2022-12-07T15:21:35;11.90;;;7.43;;
20859;SDS011;10590;48.154;11.514;2022-12-07T15:26:37;12.20;;;8.00;;
20859;SDS011;10590;48.154;11.514;2022-12-07T15:31:40;12.17;;;7.93;;
20859;SDS011;10590;48.154;11.514;2022-12-07T15:36:42;12.30;;;8.40;;
20859;SDS011;10590;48.154;11.514;2022-12-07T15:41:43;12.90;;;8.60;;
20859;SDS011;10590;48.154;11.514;2022-12-07T15:46:47;15.17;;;8.40;;
20859;SDS011;10590;48.154;11.514;2022-12-07T15:51:48;15.80;;;8.97;;
20859;SDS011;10590;48.154;11.514;2022-12-07T15:56:50;16.40;;;9.80;;
20859;SDS011;10590;48.154;11.514;2022-12-07T16:01:53;24.63;;;10.70;;
20859;SDS011;10590;48.154;11.514;2022-12-07T16:06:55;19.10;;;11.70;;
20859;SDS011;10590;48.154;11.514;2022-12-07T16:11:57;17.57;;;10.07;;
20859;SDS011;10590;48.154;11.514;2022-12-07T16:17:00;18.53;;;11.43;;
20859;SDS011;10590;48.154;11.514;2022-12-07T16:22:04;23.63;;;11.83;;
20859;SDS011;10590;48.154;11.514;2022-12-07T16:27:06;20.67;;;13.03;;
20859;SDS011;10590;48.154;11.514;2022-12-07T16:32:09;22.47;;;13.27;;
20859;SDS011;10590;48.154;11.514;2022-12-07T16:37:11;22.17;;;13.53;;
20859;SDS011;10590;48.154;11.514;2022-12-07T16:42:12;23.87;;;12.43;;
20859;SDS011;10590;48.154;11.514;2022-12-07T16:47:15;23.73;;;13.53;;
20859;SDS011;10590;48.154;11.514;2022-12-07T16:52:17;27.20;;;13.53;;
20859;SDS011;10590;48.154;11.514;2022-12-07T16:57:19;23.43;;;13.30;;
20859;SDS011;10590;48.154;11.514;2022-12-07T17:02:23;23.83;;;12.90;;
20859;SDS011;10590;48.154;11.514;2022-12-07T17:07:24;19.63;;;12.37;;
20859;SDS011;10590;48.154;11.514;2022-12-07T17:12:26;20.33;;;12.37;;
20859;SDS011;10590;48.154;11.514;2022-12-07T17:17:29;20.80;;;11.83;;
20859;SDS011;10590;48.154;11.514;2022-12-07T17:22:33;18.30;;;11.57;;
20859;SDS011;10590;48.154;11.514;2022-12-07T17:27:35;27.80;;;12.33;;
20859;SDS011;10590;48.154;11.514;2022-12-07T17:32:38;19.73;;;12.37;;
20859;SDS011;10590;48.154;11.514;2022-12-07T17:37:40;24.63;;;13.53;;
20859;SDS011;10590;48.154;11.514;2022-12-07T17:42:42;20.50;;;12.00;;
20859;SDS011;10590;48.154;11.514;2022-12-07T17:47:48;23.83;;;14.73;;
20859;SDS011;10590;48.154;11.514;2022-12-07T17:52:50;20.23;;;12.47;;
20859;SDS011;10590;48.154;11.514;2022-12-07T17:58:09;26.80;;;13.67;;
20859;SDS011;10590;48.154;11.514;2022-12-07T18:03:12;24.13;;;13.27;;
20859;SDS011;10590;48.154;11.514;2022-12-07T18:08:14;22.50;;;12.17;;
20859;SDS011;10590;48.154;11.514;2022-12-07T18:13:16;24.77;;;13.43;;
20859;SDS011;10590;48.154;11.514;2022-12-07T18:18:39;24.60;;;15.13;;
20859;SDS011;10590;48.154;11.514;2022-12-07T18:23:41;25.90;;;14.50;;
20859;SDS011;10590;48.154;11.514;2022-12-07T18:28:44;29.03;;;15.33;;
20859;SDS011;10590;48.154;11.514;2022-12-07T18:33:47;26.17;;;14.23;;
20859;SDS011;10590;48.154;11.514;2022-12-07T18:38:49;21.67;;;13.63;;
20859;SDS011;10590;48.154;11.514;2022-12-07T18:43:55;23.00;;;13.50;;
20859;SDS011;10590;48.154;11.514;2022-12-07T18:48:58;30.50;;;16.20;;
20859;SDS011;10590;48.154;11.514;2022-12-07T18:54:00;28.10;;;15.00;;
20859;SDS011;10590;48.154;11.514;2022-12-07T18:59:03;34.73;;;17.13;;
20859;SDS011;10590;48.154;11.514;2022-12-07T19:04:24;22.87;;;13.27;;
20859;SDS011;10590;48.154;11.514;2022-12-07T19:09:26;21.47;;;12.27;;
20859;SDS011;10590;48.154;11.514;2022-12-07T19:14:29;23.30;;;12.93;;
20859;SDS011;10590;48.154;11.514;2022-12-07T19:19:34;30.83;;;15.40;;
20859;SDS011;10590;48.154;11.514;2022-12-07T19:24:37;25.37;;;14.93;;
20859;SDS011;10590;48.154;11.514;2022-12-07T19:29:38;26.13;;;15.07;;
20859;SDS011;10590;48.154;11.514;2022-12-07T19:34:42;26.53;;;15.93;;
20859;SDS011;10590;48.154;11.514;2022-12-07T19:39:45;30.07;;;15.80;;
20859;SDS011;10590;48.154;11.514;2022-12-07T19:44:50;28.17;;;15.60;;
20859;SDS011;10590;48.154;11.514;2022-12-07T19:49:53;26.17;;;15.77;;
20859;SDS011;10590;48.154;11.514;2022-12-07T19:54:55;30.03;;;16.63;;
20859;SDS011;10590;48.154;11.514;2022-12-07T19:59:57;27.27;;;16.33;;
20859;SDS011;10590;48.154;11.514;2022-12-07T20:05:00;30.67;;;16.90;;
20859;SDS011;10590;48.154;11.514;2022-12-07T20:10:02;31.17;;;17.10;;
20859;SDS011;10590;48.154;11.514;2022-12-07T20:15:05;30.17;;;17.63;;
20859;SDS011;10590;48.154;11.514;2022-12-07T20:20:09;28.20;;;16.37;;
20859;SDS011;10590;48.154;11.514;2022-12-07T20:25:11;33.53;;;19.00;;
20859;SDS011;10590;48.154;11.514;2022-12-07T20:30:14;27.77;;;16.33;;
20859;SDS011;10590;48.154;11.514;2022-12-07T20:35:17;30.87;;;17.13;;
20859;SDS011;10590;48.154;11.514;2022-12-07T20:40:19;30.73;;;17.17;;
20859;SDS011;10590;48.154;11.514;2022-12-07T20:45:20;42.57;;;21.73;;
20859;SDS011;10590;48.154;11.514;2022-12-07T20:50:23;29.23;;;15.93;;
20859;SDS011;10590;48.154;11.514;2022-12-07T20:55:25;30.73;;;16.67;;
20859;SDS011;10590;48.154;11.514;2022-12-07T21:00:26;39.93;;;21.83;;
20859;SDS011;10590;48.154;11.514;2022-12-07T21:05:30;28.17;;;16.97;;
20859;SDS011;10590;48.154;11.514;2022-12-07T21:10:34;32.00;;;18.13;;
20859;SDS011;10590;48.154;11.514;2022-12-07T21:15:36;31.20;;;16.93;;
20859;SDS011;10590;48.154;11.514;2022-12-07T21:20:39;27.30;;;15.95;;
20859;SDS011;10590;48.154;11.514;2022-12-07T21:25:41;27.50;;;16.13;;
20859;SDS011;10590;48.154;11.514;2022-12-07T21:30:43;29.47;;;16.40;;
20859;SDS011;10590;48.154;11.514;2022-12-07T21:35:46;24.33;;;15.30;;
20859;SDS011;10590;48.154;11.514;2022-12-07T21:40:48;24.77;;;14.83;;
20859;SDS011;10590;48.154;11.514;2022-12-07T21:45:49;22.70;;;14.43;;
20859;SDS011;10590;48.154;11.514;2022-12-07T21:50:53;25.33;;;15.50;;
20859;SDS011;10590;48.154;11.514;2022-12-07T21:55:54;24.13;;;15.07;;
20859;SDS011;10590;48.154;11.514;2022-12-07T22:00:56;25.23;;;14.43;;
20859;SDS011;10590;48.154;11.514;2022-12-07T22:06:00;23.87;;;14.80;;
20859;SDS011;10590;48.154;11.514;2022-12-07T22:11:02;23.60;;;14.07;;
20859;SDS011;10590;48.154;11.514;2022-12-07T22:16:04;23.57;;;14.83;;
20859;SDS011;10590;48.154;11.514;2022-12-07T22:21:09;28.03;;;16.10;;
20859;SDS011;10590;48.154;11.514;2022-12-07T22:26:13;38.13;;;20.00;;
20859;SDS011;10590;48.154;11.514;2022-12-07T22:31:18;24.00;;;14.83;;
20859;SDS011;10590;48.154;11.514;2022-12-07T22:36:21;25.43;;;14.73;;
20859;SDS011;10590;48.154;11.514;2022-12-07T22:41:24;24.70;;;14.47;;
20859;SDS011;10590;48.154;11.514;2022-12-07T22:46:30;26.03;;;15.30;;
20859;SDS011;10590;48.154;11.514;2022-12-07T22:51:34;25.63;;;14.97;;
20859;SDS011;10590;48.154;11.514;2022-12-07T22:56:38;24.37;;;14.57;;
20859;SDS011;10590;48.154;11.514;2022-12-07T23:01:42;28.57;;;15.10;;
20859;SDS011;10590;48.154;11.514;2022-12-07T23:06:45;22.50;;;14.20;;
20859;SDS011;10590;48.154;11.514;2022-12-07T23:11:47;27.73;;;15.97;;
20859;SDS011;10590;48.154;11.514;2022-12-07T23:17:06;23.57;;;15.10;;
20859;SDS011;10590;48.154;11.514;2022-12-07T23:22:10;25.27;;;16.00;;
20859;SDS011;10590;48.154;11.514;2022-12-07T23:27:12;26.80;;;16.13;;
20859;SDS011;10590;48.154;11.514;2022-12-07T23:32:14;26.07;;;15.30;;
20859;SDS011;10590;48.154;11.514;2022-12-07T23:37:17;24.67;;;14.87;;
20859;SDS011;10590;48.154;11.514;2022-12-07T23:42:18;24.60;;;15.20;;
20859;SDS011;10590;48.154;11.514;2022-12-07T23:47:21;26.57;;;15.87;;
20859;SDS011;10590;48.154;11.514;2022-12-07T23:52:25;27.37;;;15.37;;
20859;SDS011;10590;48.154;11.514;2022-12-07T23:57:27;24.83;;;14.93;;
